createdAt,value
2018-09-12T00:00:53.780Z,99.90
2018-09-12T00:03:22.030Z,99.90
2018-09-12T00:05:50.273Z,99.90
2018-09-12T00:08:19.496Z,99.90
2018-09-12T00:10:47.961Z,99.90
2018-09-12T00:13:20.596Z,99.90
2018-09-12T00:15:49.983Z,99.90
2018-09-12T00:18:18.500Z,99.90
2018-09-12T00:20:46.717Z,99.90
2018-09-12T00:23:16.087Z,99.90
2018-09-12T00:25:46.384Z,99.90
2018-09-12T00:28:16.784Z,99.90
2018-09-12T00:30:45.755Z,99.90
2018-09-12T00:33:14.669Z,99.90
2018-09-12T00:35:44.660Z,99.90
2018-09-12T00:38:16.115Z,99.90
2018-09-12T00:40:48.710Z,99.90
2018-09-12T00:43:17.019Z,99.90
2018-09-12T00:45:46.863Z,99.90
2018-09-12T00:48:16.324Z,99.90
2018-09-12T00:50:45.785Z,99.90
2018-09-12T00:53:16.015Z,99.90
2018-09-12T00:55:44.339Z,99.90
2018-09-12T00:58:18.040Z,99.90
2018-09-12T01:00:46.285Z,99.90
2018-09-12T01:03:16.035Z,99.90
2018-09-12T01:05:47.311Z,99.90
2018-09-12T01:08:15.760Z,99.90
2018-09-12T01:10:46.172Z,99.90
2018-09-12T01:13:21.284Z,99.90
2018-09-12T01:15:51.367Z,99.90
2018-09-12T01:18:21.320Z,99.90
2018-09-12T01:20:51.223Z,99.90
2018-09-12T01:23:21.400Z,99.90
2018-09-12T01:25:55.782Z,99.90
2018-09-12T01:28:25.520Z,99.90
2018-09-12T01:30:54.080Z,99.90
2018-09-12T01:33:22.764Z,99.90
2018-09-12T01:35:52.348Z,99.90
2018-09-12T01:38:20.590Z,99.90
2018-09-12T01:40:49.511Z,99.90
2018-09-12T01:43:22.968Z,99.90
2018-09-12T01:45:51.856Z,99.90
2018-09-12T01:48:20.034Z,99.90
2018-09-12T01:50:48.207Z,99.90
2018-09-12T01:53:17.192Z,99.90
2018-09-12T01:55:45.408Z,99.90
2018-09-12T01:58:14.732Z,99.90
2018-09-12T02:00:43.102Z,99.90
2018-09-12T02:03:12.057Z,99.90
2018-09-12T02:05:40.224Z,99.90
2018-09-12T02:08:08.659Z,99.90
2018-09-12T02:10:43.922Z,99.90
2018-09-12T02:13:12.096Z,99.90
2018-09-12T02:15:41.328Z,99.90
2018-09-12T02:18:09.484Z,99.90
2018-09-12T02:20:38.032Z,99.90
2018-09-12T02:23:06.855Z,99.90
2018-09-12T02:25:35.028Z,99.90
2018-09-12T02:28:03.241Z,99.90
2018-09-12T02:30:31.964Z,99.90
2018-09-12T02:33:01.355Z,99.90
2018-09-12T02:35:30.081Z,99.90
2018-09-12T02:37:58.248Z,99.90
2018-09-12T02:40:26.415Z,99.90
2018-09-12T02:42:54.635Z,99.90
2018-09-12T02:45:22.880Z,99.90
2018-09-12T02:47:51.765Z,99.90
2018-09-12T02:50:21.326Z,99.90
2018-09-12T02:52:49.485Z,99.90
2018-09-12T02:55:19.216Z,99.90
2018-09-12T02:57:48.357Z,99.90
2018-09-12T03:00:16.546Z,99.90
2018-09-12T03:02:45.524Z,99.90
2018-09-12T03:05:14.004Z,99.90
2018-09-12T03:07:42.895Z,99.90
2018-09-12T03:10:14.822Z,99.90
2018-09-12T03:12:43.182Z,99.90
2018-09-12T03:15:11.405Z,99.90
2018-09-12T03:17:39.601Z,99.90
2018-09-12T03:20:08.134Z,99.90
2018-09-12T03:22:36.348Z,99.90
2018-09-12T03:25:04.610Z,99.90
2018-09-12T03:27:33.287Z,99.90
2018-09-12T03:30:01.894Z,99.90
2018-09-12T03:32:31.240Z,99.90
2018-09-12T03:35:00.249Z,99.90
2018-09-12T03:37:29.490Z,99.90
2018-09-12T03:39:57.703Z,99.90
2018-09-12T03:42:25.900Z,99.90
2018-09-12T03:44:54.127Z,99.90
2018-09-12T03:47:22.759Z,99.90
2018-09-12T03:49:51.384Z,99.90
2018-09-12T03:52:20.059Z,99.90
2018-09-12T03:54:53.398Z,99.90
2018-09-12T03:57:22.808Z,99.90
2018-09-12T03:59:50.989Z,99.90
2018-09-12T04:02:19.201Z,99.90
2018-09-12T04:04:48.126Z,99.90
2018-09-12T04:07:19.852Z,99.90
2018-09-12T04:09:48.599Z,99.90
2018-09-12T04:12:16.957Z,99.90
2018-09-12T04:14:45.316Z,99.90
2018-09-12T04:17:14.243Z,99.90
2018-09-12T04:19:45.314Z,99.90
2018-09-12T04:22:13.507Z,99.90
2018-09-12T04:24:41.696Z,99.90
2018-09-12T04:27:09.979Z,99.90
2018-09-12T04:29:38.405Z,99.90
2018-09-12T04:32:06.608Z,99.90
2018-09-12T04:34:34.902Z,99.90
2018-09-12T04:37:03.088Z,99.90
2018-09-12T04:39:31.735Z,99.90
2018-09-12T04:42:00.705Z,99.90
2018-09-12T04:44:29.030Z,99.90
2018-09-12T04:46:58.654Z,99.90
2018-09-12T04:49:26.898Z,99.90
2018-09-12T04:51:55.106Z,99.90
2018-09-12T04:54:26.820Z,99.90
2018-09-12T04:56:55.051Z,99.90
2018-09-12T04:59:24.114Z,99.90
2018-09-12T05:06:44.807Z,99.90
2018-09-12T05:09:17.209Z,99.90
2018-09-12T05:11:45.457Z,99.90
2018-09-12T05:14:13.702Z,99.90
2018-09-12T05:16:42.707Z,99.90
2018-09-12T05:19:10.882Z,99.90
2018-09-12T05:21:39.058Z,99.90
2018-09-12T05:24:10.639Z,99.90
2018-09-12T05:26:38.915Z,99.90
2018-09-12T05:29:07.849Z,99.90
2018-09-12T05:31:36.088Z,99.90
2018-09-12T05:34:04.296Z,99.90
2018-09-12T05:36:32.676Z,99.90
2018-09-12T05:39:06.140Z,99.90
2018-09-12T05:41:34.800Z,99.90
2018-09-12T05:44:03.165Z,99.90
2018-09-12T05:46:31.340Z,99.90
2018-09-12T05:48:59.549Z,99.90
2018-09-12T05:51:28.196Z,99.90
2018-09-12T05:53:59.911Z,99.90
2018-09-12T05:56:28.823Z,99.90
2018-09-12T05:58:57.206Z,99.90
2018-09-12T06:01:25.400Z,99.90
2018-09-12T06:03:54.256Z,99.90
2018-09-12T06:06:22.534Z,99.90
2018-09-12T06:08:51.493Z,99.90
2018-09-12T06:11:20.696Z,99.90
2018-09-12T06:13:48.934Z,99.90
2018-09-12T06:16:17.084Z,99.90
2018-09-12T06:18:45.332Z,99.90
2018-09-12T06:21:13.541Z,99.90
2018-09-12T06:23:41.735Z,99.90
2018-09-12T06:26:11.530Z,99.90
2018-09-12T06:28:39.747Z,99.90
2018-09-12T06:31:08.444Z,99.90
2018-09-12T06:33:36.659Z,99.90
2018-09-12T06:36:05.753Z,99.90
2018-09-12T06:38:35.196Z,99.90
2018-09-12T06:41:04.349Z,99.90
2018-09-12T06:43:34.576Z,99.90
2018-09-12T06:46:03.712Z,99.90
2018-09-12T06:48:32.361Z,99.90
2018-09-12T06:51:00.805Z,99.90
2018-09-12T06:53:30.645Z,99.90
2018-09-12T06:58:38.190Z,99.90
2018-09-12T07:01:08.753Z,99.90
2018-09-12T07:03:36.944Z,99.90
2018-09-12T07:06:05.395Z,99.90
2018-09-12T07:08:34.212Z,99.90
2018-09-12T07:11:08.284Z,99.90
2018-09-12T07:13:36.548Z,99.90
2018-09-12T07:18:42.624Z,99.90
2018-09-12T07:21:12.157Z,99.90
2018-09-12T07:23:41.435Z,99.90
2018-09-12T07:26:13.302Z,99.90
2018-09-12T07:28:43.833Z,99.90
2018-09-12T07:31:12.007Z,99.90
2018-09-12T07:33:41.524Z,99.90
2018-09-12T07:36:09.733Z,99.90
2018-09-12T07:38:38.390Z,99.90
2018-09-12T07:41:12.425Z,99.90
2018-09-12T07:43:40.623Z,99.90
2018-09-12T07:46:10.604Z,99.90
2018-09-12T07:48:41.672Z,99.90
2018-09-12T07:51:10.844Z,99.90
2018-09-12T07:53:40.724Z,99.90
2018-09-12T07:56:12.357Z,99.90
2018-09-12T07:58:41.062Z,99.90
2018-09-12T08:01:10.396Z,99.90
2018-09-12T08:03:39.144Z,99.90
2018-09-12T08:06:08.041Z,99.90
2018-09-12T08:08:36.320Z,99.90
2018-09-12T08:15:59.985Z,99.90
2018-09-12T08:18:28.252Z,99.90
2018-09-12T08:20:58.044Z,99.90
2018-09-12T08:23:26.605Z,99.90
2018-09-12T08:25:55.854Z,99.90
2018-09-12T08:28:24.987Z,99.90
2018-09-12T08:30:54.952Z,99.90
2018-09-12T08:33:24.357Z,99.90
2018-09-12T08:35:52.885Z,99.90
2018-09-12T08:38:21.697Z,99.90
2018-09-12T08:40:50.697Z,99.90
2018-09-12T08:43:22.561Z,99.90
2018-09-12T08:45:51.029Z,99.90
2018-09-12T08:48:19.965Z,99.90
2018-09-12T08:50:50.136Z,99.90
2018-09-12T08:53:19.337Z,99.90
2018-09-12T08:55:48.283Z,99.90
2018-09-12T08:58:20.556Z,99.90
2018-09-12T09:00:48.804Z,99.90
2018-09-12T09:03:17.020Z,99.90
2018-09-12T09:05:45.224Z,99.90
2018-09-12T09:08:13.648Z,99.90
2018-09-12T09:10:41.884Z,99.90
2018-09-12T09:13:10.048Z,99.90
2018-09-12T09:15:38.247Z,99.90
2018-09-12T09:18:06.555Z,99.90
2018-09-12T09:20:34.913Z,99.90
2018-09-12T09:23:03.098Z,99.90
2018-09-12T09:25:31.338Z,99.90
2018-09-12T09:27:59.502Z,99.90
2018-09-12T09:30:32.640Z,99.90
2018-09-12T09:33:01.269Z,99.90
2018-09-12T09:35:30.277Z,99.90
2018-09-12T09:37:58.765Z,99.90
2018-09-12T09:40:27.004Z,99.90
2018-09-12T09:42:56.141Z,99.90
2018-09-12T09:45:28.928Z,99.90
2018-09-12T09:47:57.703Z,99.90
2018-09-12T09:50:25.866Z,99.90
2018-09-12T09:52:54.467Z,99.90
2018-09-12T09:55:23.027Z,99.90
2018-09-12T09:57:59.720Z,99.90
2018-09-12T10:00:33.528Z,99.90
2018-09-12T10:03:07.227Z,99.90
2018-09-12T10:05:40.830Z,99.90
2018-09-12T10:08:14.985Z,99.90
2018-09-12T10:10:43.562Z,99.90
2018-09-12T10:13:11.800Z,99.60
2018-09-12T10:15:39.999Z,99.90
2018-09-12T10:18:08.217Z,99.30
2018-09-12T10:20:36.468Z,98.80
2018-09-12T10:23:04.737Z,98.60
2018-09-12T10:25:32.967Z,98.30
2018-09-12T10:28:01.635Z,98.50
2018-09-12T10:30:29.823Z,97.60
2018-09-12T10:32:58.215Z,97.50
2018-09-12T10:35:26.547Z,97.70
2018-09-12T10:37:55.503Z,97.50
2018-09-12T10:40:23.710Z,95.40
2018-09-12T10:42:53.430Z,94.40
2018-09-12T10:45:23.031Z,93.50
2018-09-12T10:47:52.651Z,93.10
2018-09-12T10:50:22.809Z,92.60
2018-09-12T10:52:52.582Z,92.70
2018-09-12T10:55:22.712Z,91.60
2018-09-12T10:57:51.861Z,90.90
2018-09-12T11:00:20.037Z,90.40
2018-09-12T11:02:48.272Z,90.00
2018-09-12T11:05:16.488Z,90.20
2018-09-12T11:07:44.761Z,88.90
2018-09-12T11:10:13.005Z,87.90
2018-09-12T11:12:41.287Z,87.70
2018-09-12T11:15:09.521Z,87.00
2018-09-12T11:17:37.757Z,86.30
2018-09-12T11:20:06.510Z,85.00
2018-09-12T11:22:35.627Z,85.20
2018-09-12T11:25:03.825Z,85.70
2018-09-12T11:27:32.036Z,84.40
2018-09-12T11:30:03.339Z,84.50
2018-09-12T11:32:31.527Z,84.70
2018-09-12T11:39:54.179Z,83.30
2018-09-12T11:42:22.333Z,82.40
2018-09-12T11:44:50.732Z,82.60
2018-09-12T11:47:18.939Z,82.60
2018-09-12T11:49:47.216Z,81.70
2018-09-12T11:52:15.384Z,80.20
2018-09-12T11:54:44.585Z,80.00
2018-09-12T11:57:12.771Z,79.80
2018-09-12T11:59:41.002Z,79.80
2018-09-12T12:02:10.172Z,79.30
2018-09-12T12:04:38.375Z,79.40
2018-09-12T12:07:06.576Z,78.30
2018-09-12T12:09:34.767Z,79.50
2018-09-12T12:12:02.981Z,77.10
2018-09-12T12:14:31.176Z,76.20
2018-09-12T12:17:02.320Z,74.50
2018-09-12T12:19:30.513Z,74.30
2018-09-12T12:21:59.325Z,75.00
2018-09-12T12:24:27.540Z,72.70
2018-09-12T12:26:55.751Z,72.60
2018-09-12T12:29:23.953Z,73.00
2018-09-12T12:31:59.647Z,74.30
2018-09-12T12:34:27.834Z,72.70
2018-09-12T12:36:56.054Z,72.60
2018-09-12T12:39:24.800Z,73.00
2018-09-12T12:41:53.019Z,74.30
2018-09-12T12:44:21.207Z,74.40
2018-09-12T12:46:53.711Z,72.50
2018-09-12T12:49:21.952Z,72.40
2018-09-12T12:51:50.352Z,72.40
2018-09-12T12:54:18.512Z,71.70
2018-09-12T12:56:46.762Z,71.60
2018-09-12T12:59:14.978Z,71.50
2018-09-12T13:01:53.513Z,71.20
2018-09-12T13:04:21.949Z,70.90
2018-09-12T13:06:50.612Z,69.40
2018-09-12T13:09:18.765Z,68.70
2018-09-12T13:11:46.980Z,68.90
2018-09-12T13:14:16.909Z,68.00
2018-09-12T13:16:45.084Z,68.70
2018-09-12T13:19:13.413Z,67.60
2018-09-12T13:21:41.829Z,64.30
2018-09-12T13:26:48.987Z,65.70
2018-09-12T13:29:17.850Z,64.30
2018-09-12T13:31:49.541Z,64.70
2018-09-12T13:34:18.312Z,64.10
2018-09-12T13:36:46.519Z,63.50
2018-09-12T13:39:16.443Z,63.00
2018-09-12T13:41:44.709Z,62.90
2018-09-12T13:44:13.215Z,63.30
2018-09-12T13:46:41.374Z,64.10
2018-09-12T13:49:09.632Z,64.10
2018-09-12T13:51:38.230Z,63.70
2018-09-12T13:54:06.457Z,62.00
2018-09-12T13:56:34.862Z,64.00
2018-09-12T13:59:03.724Z,63.00
2018-09-12T14:01:31.968Z,61.40
2018-09-12T14:04:00.434Z,61.30
2018-09-12T14:06:28.707Z,61.30
2018-09-12T14:08:57.609Z,61.10
2018-09-12T14:11:25.829Z,60.60
2018-09-12T14:13:54.105Z,59.90
2018-09-12T14:16:22.605Z,58.90
2018-09-12T14:18:50.880Z,58.90
2018-09-12T14:21:19.133Z,59.40
2018-09-12T14:23:47.378Z,59.80
2018-09-12T14:26:15.721Z,59.90
2018-09-12T14:28:44.005Z,60.00
2018-09-12T14:31:12.225Z,60.40
2018-09-12T14:33:47.371Z,60.10
2018-09-12T14:36:15.652Z,60.30
2018-09-12T14:38:43.866Z,59.70
2018-09-12T14:41:13.025Z,59.70
2018-09-12T14:43:41.284Z,59.50
2018-09-12T14:46:09.483Z,59.90
2018-09-12T14:48:41.339Z,59.80
2018-09-12T14:51:09.868Z,59.80
2018-09-12T14:53:38.127Z,59.70
2018-09-12T14:56:07.164Z,59.60
2018-09-12T14:58:35.445Z,59.70
2018-09-12T15:01:03.642Z,60.00
2018-09-12T15:03:36.488Z,60.00
2018-09-12T15:06:04.696Z,60.40
2018-09-12T15:08:33.488Z,59.90
2018-09-12T15:11:01.710Z,60.30
2018-09-12T15:13:29.932Z,60.20
2018-09-12T15:15:58.750Z,60.60
2018-09-12T15:18:26.928Z,59.90
2018-09-12T15:20:55.144Z,59.20
2018-09-12T15:23:23.628Z,59.50
2018-09-12T15:25:53.695Z,59.70
2018-09-12T15:28:21.872Z,60.00
2018-09-12T15:30:50.079Z,60.10
2018-09-12T15:33:18.323Z,60.00
2018-09-12T15:35:46.497Z,60.10
2018-09-12T15:38:14.700Z,60.20
2018-09-12T15:40:43.797Z,59.80
2018-09-12T15:43:12.888Z,59.80
2018-09-12T15:45:41.091Z,59.70
2018-09-12T15:48:10.159Z,60.10
2018-09-12T15:50:38.353Z,60.00
2018-09-12T15:53:06.566Z,60.20
2018-09-12T15:55:34.756Z,60.20
2018-09-12T15:58:03.015Z,60.60
2018-09-12T16:00:31.157Z,59.90
2018-09-12T16:03:00.508Z,59.50
2018-09-12T16:05:28.733Z,59.60
2018-09-12T16:07:57.191Z,60.00
2018-09-12T16:10:25.426Z,59.10
2018-09-12T16:12:53.649Z,59.10
2018-09-12T16:15:21.923Z,59.10
2018-09-12T16:17:50.542Z,59.30
2018-09-12T16:20:19.008Z,59.80
2018-09-12T16:22:47.253Z,60.10
2018-09-12T16:25:15.473Z,59.90
2018-09-12T16:27:43.676Z,60.60
2018-09-12T16:30:11.996Z,60.30
2018-09-12T16:32:40.535Z,60.30
2018-09-12T16:35:08.704Z,60.60
2018-09-12T16:37:36.944Z,60.60
2018-09-12T16:40:06.143Z,60.60
2018-09-12T16:42:34.341Z,61.20
2018-09-12T16:45:02.699Z,61.00
2018-09-12T16:47:31.028Z,61.30
2018-09-12T16:49:59.203Z,61.70
2018-09-12T16:52:27.808Z,61.60
2018-09-12T16:54:56.101Z,62.60
2018-09-12T16:57:24.458Z,62.50
2018-09-12T16:59:52.758Z,62.80
2018-09-12T17:02:21.056Z,63.30
2018-09-12T17:04:49.250Z,64.60
2018-09-12T17:07:17.551Z,65.30
2018-09-12T17:09:45.783Z,65.40
2018-09-12T17:12:14.076Z,66.10
2018-09-12T17:14:42.307Z,66.30
2018-09-12T17:17:10.532Z,66.60
2018-09-12T17:19:38.703Z,65.80
2018-09-12T17:22:07.067Z,65.90
2018-09-12T17:24:35.257Z,66.50
2018-09-12T17:27:03.459Z,67.00
2018-09-12T17:29:31.684Z,67.90
2018-09-12T17:31:59.888Z,68.40
2018-09-12T17:34:28.058Z,69.50
2018-09-12T17:36:56.301Z,70.80
2018-09-12T17:39:24.544Z,70.70
2018-09-12T17:41:52.820Z,71.60
2018-09-12T17:44:21.072Z,72.30
2018-09-12T17:46:49.286Z,74.70
2018-09-12T17:54:16.125Z,74.40
2018-09-12T17:56:44.389Z,78.10
2018-09-12T17:59:13.476Z,78.40
2018-09-12T18:01:41.692Z,79.40
2018-09-12T18:04:10.270Z,79.90
2018-09-12T18:06:38.814Z,82.00
2018-09-12T18:09:08.176Z,82.70
2018-09-12T18:11:36.478Z,81.00
2018-09-12T18:14:04.695Z,84.10
2018-09-12T18:16:33.407Z,84.90
2018-09-12T18:19:01.711Z,85.40
2018-09-12T18:21:29.904Z,85.70
2018-09-12T18:23:58.163Z,87.80
2018-09-12T18:26:26.384Z,88.40
2018-09-12T18:28:54.740Z,89.60
2018-09-12T18:31:22.924Z,90.20
2018-09-12T18:33:51.120Z,90.50
2018-09-12T18:36:19.344Z,90.80
2018-09-12T18:38:47.626Z,90.50
2018-09-12T18:41:15.979Z,90.50
2018-09-12T18:43:44.158Z,90.50
2018-09-12T18:46:12.376Z,90.20
2018-09-12T18:48:40.590Z,90.50
2018-09-12T18:51:09.901Z,90.00
2018-09-12T18:53:38.606Z,91.10
2018-09-12T18:56:07.428Z,91.10
2018-09-12T18:58:35.879Z,91.40
2018-09-12T19:01:04.089Z,91.30
2018-09-12T19:03:32.288Z,91.10
2018-09-12T19:06:00.520Z,92.50
2018-09-12T19:08:28.740Z,92.30
2018-09-12T19:10:56.984Z,93.20
2018-09-12T19:13:25.272Z,93.70
2018-09-12T19:15:53.409Z,94.00
2018-09-12T19:18:21.659Z,94.00
2018-09-12T19:20:49.789Z,94.00
2018-09-12T19:23:18.051Z,95.00
2018-09-12T19:25:47.138Z,95.60
2018-09-12T19:28:16.309Z,95.90
2018-09-12T19:30:44.693Z,96.40
2018-09-12T19:33:12.913Z,96.60
2018-09-12T19:35:41.159Z,96.40
2018-09-12T19:38:12.960Z,96.30
2018-09-12T19:40:41.218Z,97.10
2018-09-12T19:43:09.419Z,97.80
2018-09-12T19:45:37.612Z,97.00
2018-09-12T19:48:06.040Z,98.10
2018-09-12T19:50:34.238Z,97.20
2018-09-12T19:53:05.567Z,96.70
2018-09-12T19:55:33.850Z,97.40
2018-09-12T19:58:02.147Z,98.20
2018-09-12T20:00:31.473Z,99.00
2018-09-12T20:03:00.108Z,99.40
2018-09-12T20:05:28.325Z,99.80
2018-09-12T20:08:00.119Z,99.90
2018-09-12T20:10:28.580Z,99.90
2018-09-12T20:12:56.900Z,99.90
2018-09-12T20:15:25.194Z,99.90
2018-09-12T20:17:54.498Z,99.90
2018-09-12T20:20:22.748Z,99.90
2018-09-12T20:22:51.465Z,99.90
2018-09-12T20:25:19.720Z,99.90
2018-09-12T20:27:47.936Z,99.90
2018-09-12T20:30:18.188Z,99.90
2018-09-12T20:32:46.737Z,99.90
2018-09-12T20:35:14.922Z,99.90
2018-09-12T20:37:43.101Z,99.90
2018-09-12T20:40:11.318Z,99.90
2018-09-12T20:42:39.745Z,99.90
2018-09-12T20:45:07.956Z,99.90
2018-09-12T20:47:36.266Z,99.90
2018-09-12T20:50:04.483Z,99.90
2018-09-12T20:52:32.678Z,99.90
2018-09-12T20:55:00.915Z,99.90
2018-09-12T20:57:29.126Z,99.90
2018-09-12T20:59:57.330Z,99.90
2018-09-12T21:02:25.544Z,99.90
2018-09-12T21:04:53.722Z,99.90
2018-09-12T21:07:21.939Z,99.90
2018-09-12T21:09:50.116Z,99.90
2018-09-12T21:12:18.364Z,99.90
2018-09-12T21:14:46.576Z,99.90
2018-09-12T21:17:14.905Z,99.90
2018-09-12T21:19:43.062Z,99.90
2018-09-12T21:22:11.239Z,99.90
2018-09-12T21:24:43.038Z,99.90
2018-09-12T21:27:11.432Z,99.90
2018-09-12T21:29:39.694Z,99.90
2018-09-12T21:32:07.912Z,99.90
2018-09-12T21:34:36.189Z,99.90
2018-09-12T21:37:04.443Z,99.90
2018-09-12T21:39:32.618Z,99.90
2018-09-12T21:42:04.568Z,99.90
2018-09-12T21:44:32.756Z,99.90
2018-09-12T21:47:00.964Z,99.90
2018-09-12T21:49:29.365Z,99.90
2018-09-12T21:51:57.733Z,99.90
2018-09-12T21:54:25.900Z,99.90
2018-09-12T21:56:54.156Z,99.90
2018-09-12T21:59:22.348Z,99.90
2018-09-12T22:01:50.579Z,99.90
2018-09-12T22:04:18.764Z,99.90
2018-09-12T22:06:46.968Z,99.90
2018-09-12T22:09:15.454Z,99.90
2018-09-12T22:11:43.669Z,99.90
2018-09-12T22:14:11.900Z,99.90
2018-09-12T22:16:40.124Z,99.90
2018-09-12T22:19:08.335Z,99.90
2018-09-12T22:21:36.546Z,99.90
2018-09-12T22:24:04.727Z,99.90
2018-09-12T22:26:32.883Z,99.90
2018-09-12T22:29:01.088Z,99.90
2018-09-12T22:31:29.243Z,99.90
2018-09-12T22:33:57.442Z,99.90
2018-09-12T22:36:25.627Z,99.90
2018-09-12T22:38:53.816Z,99.90
2018-09-12T22:41:22.190Z,99.90
2018-09-12T22:43:50.620Z,99.90
2018-09-12T22:46:18.823Z,99.90
2018-09-12T22:48:47.017Z,99.90
2018-09-12T22:51:15.196Z,99.90
2018-09-12T22:53:43.409Z,99.90
2018-09-12T22:56:15.886Z,99.90
2018-09-12T22:58:44.071Z,99.90
2018-09-12T23:01:12.280Z,99.90
2018-09-12T23:03:40.549Z,99.90
2018-09-12T23:06:08.729Z,99.90
2018-09-12T23:08:36.912Z,99.90
2018-09-12T23:11:12.957Z,99.90
2018-09-12T23:13:41.408Z,99.90
2018-09-12T23:16:09.801Z,99.90
2018-09-12T23:18:38.026Z,99.90
2018-09-12T23:21:06.266Z,99.90
2018-09-12T23:23:34.505Z,99.90
2018-09-12T23:26:02.716Z,99.90
2018-09-12T23:28:35.088Z,99.90
2018-09-12T23:31:03.287Z,99.90
2018-09-12T23:33:31.447Z,99.90
2018-09-12T23:35:59.654Z,99.90
2018-09-12T23:38:27.855Z,99.90
2018-09-12T23:40:56.065Z,99.90
2018-09-12T23:43:27.900Z,99.90
2018-09-12T23:45:56.128Z,99.90
2018-09-12T23:48:24.335Z,99.90
2018-09-12T23:50:52.635Z,99.90
2018-09-12T23:53:20.843Z,99.90
2018-09-12T23:55:49.016Z,99.90
2018-09-12T23:58:21.888Z,99.90
